sensor_id;sensor_type;location;lat;lon;timestamp;P1;durP1;ratioP1;P2;durP2;ratioP2
29092;SDS011;16167;48.768;14.984;2023-04-06T00:02:20;26.65;;;12.77;;
29092;SDS011;16167;48.768;14.984;2023-04-06T00:04:48;18.10;;;10.98;;
29092;SDS011;16167;48.768;14.984;2023-04-06T00:07:16;21.23;;;11.68;;
29092;SDS011;16167;48.768;14.984;2023-04-06T00:09:44;17.10;;;9.73;;
29092;SDS011;16167;48.768;14.984;2023-04-06T00:12:12;20.88;;;10.18;;
29092;SDS011;16167;48.768;14.984;2023-04-06T00:14:41;17.00;;;9.35;;
29092;SDS011;16167;48.768;14.984;2023-04-06T00:17:09;17.30;;;9.82;;
29092;SDS011;16167;48.768;14.984;2023-04-06T00:19:39;18.05;;;8.02;;
29092;SDS011;16167;48.768;14.984;2023-04-06T00:22:07;15.02;;;8.30;;
29092;SDS011;16167;48.768;14.984;2023-04-06T00:24:36;13.43;;;7.43;;
29092;SDS011;16167;48.768;14.984;2023-04-06T00:27:04;13.45;;;7.53;;
29092;SDS011;16167;48.768;14.984;2023-04-06T00:29:32;12.32;;;7.40;;
29092;SDS011;16167;48.768;14.984;2023-04-06T00:32:00;11.68;;;7.32;;
29092;SDS011;16167;48.768;14.984;2023-04-06T00:34:29;11.80;;;7.50;;
29092;SDS011;16167;48.768;14.984;2023-04-06T00:36:58;14.27;;;7.05;;
29092;SDS011;16167;48.768;14.984;2023-04-06T00:39:26;11.60;;;7.15;;
29092;SDS011;16167;48.768;14.984;2023-04-06T00:41:54;12.57;;;8.00;;
29092;SDS011;16167;48.768;14.984;2023-04-06T00:44:24;12.98;;;7.28;;
29092;SDS011;16167;48.768;14.984;2023-04-06T00:46:52;13.40;;;7.97;;
29092;SDS011;16167;48.768;14.984;2023-04-06T00:49:20;13.13;;;7.97;;
29092;SDS011;16167;48.768;14.984;2023-04-06T00:51:48;15.73;;;7.82;;
29092;SDS011;16167;48.768;14.984;2023-04-06T00:54:18;13.13;;;7.72;;
29092;SDS011;16167;48.768;14.984;2023-04-06T00:56:46;12.85;;;7.38;;
29092;SDS011;16167;48.768;14.984;2023-04-06T00:59:14;11.48;;;7.43;;
29092;SDS011;16167;48.768;14.984;2023-04-06T01:01:42;16.60;;;8.02;;
29092;SDS011;16167;48.768;14.984;2023-04-06T01:04:11;13.65;;;7.63;;
29092;SDS011;16167;48.768;14.984;2023-04-06T01:06:39;15.45;;;8.75;;
29092;SDS011;16167;48.768;14.984;2023-04-06T01:09:08;14.88;;;9.48;;
29092;SDS011;16167;48.768;14.984;2023-04-06T01:11:38;17.40;;;9.60;;
29092;SDS011;16167;48.768;14.984;2023-04-06T01:14:06;14.60;;;8.20;;
29092;SDS011;16167;48.768;14.984;2023-04-06T01:16:35;14.73;;;8.07;;
29092;SDS011;16167;48.768;14.984;2023-04-06T01:19:07;13.70;;;8.48;;
29092;SDS011;16167;48.768;14.984;2023-04-06T01:21:36;11.27;;;7.20;;
29092;SDS011;16167;48.768;14.984;2023-04-06T01:24:07;12.93;;;7.47;;
29092;SDS011;16167;48.768;14.984;2023-04-06T01:26:36;10.75;;;7.15;;
29092;SDS011;16167;48.768;14.984;2023-04-06T01:29:05;9.95;;;6.75;;
29092;SDS011;16167;48.768;14.984;2023-04-06T01:31:34;13.48;;;6.55;;
29092;SDS011;16167;48.768;14.984;2023-04-06T01:34:02;13.60;;;7.30;;
29092;SDS011;16167;48.768;14.984;2023-04-06T01:36:31;10.63;;;6.30;;
29092;SDS011;16167;48.768;14.984;2023-04-06T01:38:59;9.47;;;5.23;;
29092;SDS011;16167;48.768;14.984;2023-04-06T01:41:29;11.38;;;6.35;;
29092;SDS011;16167;48.768;14.984;2023-04-06T01:43:57;10.45;;;6.45;;
29092;SDS011;16167;48.768;14.984;2023-04-06T01:48:54;9.98;;;5.78;;
29092;SDS011;16167;48.768;14.984;2023-04-06T01:51:22;10.20;;;6.22;;
29092;SDS011;16167;48.768;14.984;2023-04-06T01:56:20;13.27;;;7.47;;
29092;SDS011;16167;48.768;14.984;2023-04-06T01:58:49;11.35;;;6.47;;
29092;SDS011;16167;48.768;14.984;2023-04-06T02:01:17;15.85;;;8.00;;
29092;SDS011;16167;48.768;14.984;2023-04-06T02:03:46;16.83;;;9.02;;
29092;SDS011;16167;48.768;14.984;2023-04-06T02:06:14;19.80;;;9.98;;
29092;SDS011;16167;48.768;14.984;2023-04-06T02:08:42;13.25;;;9.00;;
29092;SDS011;16167;48.768;14.984;2023-04-06T02:11:10;16.65;;;9.20;;
29092;SDS011;16167;48.768;14.984;2023-04-06T02:13:39;16.70;;;9.48;;
29092;SDS011;16167;48.768;14.984;2023-04-06T02:16:08;15.38;;;9.40;;
29092;SDS011;16167;48.768;14.984;2023-04-06T02:18:37;14.70;;;8.73;;
29092;SDS011;16167;48.768;14.984;2023-04-06T02:21:05;14.93;;;9.50;;
29092;SDS011;16167;48.768;14.984;2023-04-06T02:23:33;17.05;;;10.07;;
29092;SDS011;16167;48.768;14.984;2023-04-06T02:26:01;15.80;;;9.05;;
29092;SDS011;16167;48.768;14.984;2023-04-06T02:28:30;15.85;;;10.02;;
29092;SDS011;16167;48.768;14.984;2023-04-06T02:30:58;18.05;;;9.32;;
29092;SDS011;16167;48.768;14.984;2023-04-06T02:33:27;16.00;;;9.43;;
29092;SDS011;16167;48.768;14.984;2023-04-06T02:35:55;12.32;;;7.75;;
29092;SDS011;16167;48.768;14.984;2023-04-06T02:38:24;19.25;;;9.23;;
29092;SDS011;16167;48.768;14.984;2023-04-06T02:40:52;13.30;;;8.60;;
29092;SDS011;16167;48.768;14.984;2023-04-06T02:43:20;12.27;;;7.93;;
29092;SDS011;16167;48.768;14.984;2023-04-06T02:45:48;12.73;;;8.15;;
29092;SDS011;16167;48.768;14.984;2023-04-06T02:48:16;13.18;;;7.50;;
29092;SDS011;16167;48.768;14.984;2023-04-06T02:50:46;12.25;;;7.40;;
29092;SDS011;16167;48.768;14.984;2023-04-06T02:53:14;17.23;;;7.20;;
29092;SDS011;16167;48.768;14.984;2023-04-06T02:55:42;11.82;;;7.68;;
29092;SDS011;16167;48.768;14.984;2023-04-06T02:58:10;12.30;;;6.32;;
29092;SDS011;16167;48.768;14.984;2023-04-06T03:00:38;11.18;;;6.13;;
29092;SDS011;16167;48.768;14.984;2023-04-06T03:03:06;11.98;;;6.80;;
29092;SDS011;16167;48.768;14.984;2023-04-06T03:05:35;10.82;;;5.95;;
29092;SDS011;16167;48.768;14.984;2023-04-06T03:08:04;10.93;;;6.93;;
29092;SDS011;16167;48.768;14.984;2023-04-06T03:10:33;11.65;;;7.00;;
29092;SDS011;16167;48.768;14.984;2023-04-06T03:13:01;12.57;;;7.50;;
29092;SDS011;16167;48.768;14.984;2023-04-06T03:15:29;11.02;;;6.80;;
29092;SDS011;16167;48.768;14.984;2023-04-06T03:17:57;14.18;;;8.48;;
29092;SDS011;16167;48.768;14.984;2023-04-06T03:20:26;13.48;;;8.38;;
29092;SDS011;16167;48.768;14.984;2023-04-06T03:22:54;14.82;;;8.23;;
29092;SDS011;16167;48.768;14.984;2023-04-06T03:25:24;14.43;;;8.63;;
29092;SDS011;16167;48.768;14.984;2023-04-06T03:27:52;13.60;;;8.23;;
29092;SDS011;16167;48.768;14.984;2023-04-06T03:30:20;28.85;;;11.85;;
29092;SDS011;16167;48.768;14.984;2023-04-06T03:32:48;71.07;;;26.30;;
29092;SDS011;16167;48.768;14.984;2023-04-06T03:35:16;52.85;;;20.52;;
29092;SDS011;16167;48.768;14.984;2023-04-06T03:37:44;42.30;;;17.02;;
29092;SDS011;16167;48.768;14.984;2023-04-06T03:40:13;28.95;;;14.35;;
29092;SDS011;16167;48.768;14.984;2023-04-06T03:42:42;27.33;;;13.40;;
29092;SDS011;16167;48.768;14.984;2023-04-06T03:45:10;24.35;;;14.20;;
29092;SDS011;16167;48.768;14.984;2023-04-06T03:47:39;34.55;;;17.70;;
29092;SDS011;16167;48.768;14.984;2023-04-06T03:50:07;35.08;;;17.80;;
29092;SDS011;16167;48.768;14.984;2023-04-06T03:52:36;32.40;;;16.55;;
29092;SDS011;16167;48.768;14.984;2023-04-06T03:55:05;33.15;;;14.73;;
29092;SDS011;16167;48.768;14.984;2023-04-06T03:57:34;28.05;;;14.32;;
29092;SDS011;16167;48.768;14.984;2023-04-06T04:00:04;22.50;;;12.38;;
29092;SDS011;16167;48.768;14.984;2023-04-06T04:02:33;21.17;;;11.23;;
29092;SDS011;16167;48.768;14.984;2023-04-06T04:05:01;16.85;;;9.52;;
29092;SDS011;16167;48.768;14.984;2023-04-06T04:07:30;17.83;;;10.13;;
29092;SDS011;16167;48.768;14.984;2023-04-06T04:09:58;20.23;;;9.27;;
29092;SDS011;16167;48.768;14.984;2023-04-06T04:12:27;15.85;;;8.88;;
29092;SDS011;16167;48.768;14.984;2023-04-06T04:14:55;14.73;;;8.55;;
29092;SDS011;16167;48.768;14.984;2023-04-06T04:17:24;14.55;;;8.63;;
29092;SDS011;16167;48.768;14.984;2023-04-06T04:19:52;23.45;;;10.57;;
29092;SDS011;16167;48.768;14.984;2023-04-06T04:22:21;19.92;;;6.95;;
29092;SDS011;16167;48.768;14.984;2023-04-06T04:24:49;24.30;;;11.32;;
29092;SDS011;16167;48.768;14.984;2023-04-06T04:27:17;65.82;;;25.33;;
29092;SDS011;16167;48.768;14.984;2023-04-06T04:29:45;43.20;;;17.65;;
29092;SDS011;16167;48.768;14.984;2023-04-06T04:32:13;31.20;;;12.05;;
29092;SDS011;16167;48.768;14.984;2023-04-06T04:34:44;17.70;;;9.40;;
29092;SDS011;16167;48.768;14.984;2023-04-06T04:37:12;14.02;;;8.50;;
29092;SDS011;16167;48.768;14.984;2023-04-06T04:39:40;14.75;;;7.45;;
29092;SDS011;16167;48.768;14.984;2023-04-06T04:42:08;17.63;;;8.57;;
29092;SDS011;16167;48.768;14.984;2023-04-06T04:44:37;17.40;;;8.10;;
29092;SDS011;16167;48.768;14.984;2023-04-06T04:47:05;15.25;;;8.65;;
29092;SDS011;16167;48.768;14.984;2023-04-06T04:49:33;10.50;;;7.35;;
29092;SDS011;16167;48.768;14.984;2023-04-06T04:52:02;10.27;;;7.65;;
29092;SDS011;16167;48.768;14.984;2023-04-06T04:54:31;12.15;;;7.45;;
29092;SDS011;16167;48.768;14.984;2023-04-06T04:56:59;16.20;;;7.82;;
29092;SDS011;16167;48.768;14.984;2023-04-06T04:59:27;17.60;;;8.90;;
29092;SDS011;16167;48.768;14.984;2023-04-06T05:01:56;9.15;;;5.82;;
29092;SDS011;16167;48.768;14.984;2023-04-06T05:04:24;18.38;;;9.40;;
29092;SDS011;16167;48.768;14.984;2023-04-06T05:07:02;19.40;;;9.88;;
29092;SDS011;16167;48.768;14.984;2023-04-06T05:09:31;20.48;;;10.60;;
29092;SDS011;16167;48.768;14.984;2023-04-06T05:11:59;16.98;;;9.27;;
29092;SDS011;16167;48.768;14.984;2023-04-06T05:14:28;15.85;;;9.43;;
29092;SDS011;16167;48.768;14.984;2023-04-06T05:16:56;16.58;;;8.52;;
29092;SDS011;16167;48.768;14.984;2023-04-06T05:19:24;14.38;;;8.90;;
29092;SDS011;16167;48.768;14.984;2023-04-06T05:21:52;16.17;;;9.77;;
29092;SDS011;16167;48.768;14.984;2023-04-06T05:24:22;16.95;;;9.32;;
29092;SDS011;16167;48.768;14.984;2023-04-06T05:26:50;15.23;;;9.65;;
29092;SDS011;16167;48.768;14.984;2023-04-06T05:29:18;13.88;;;9.40;;
29092;SDS011;16167;48.768;14.984;2023-04-06T05:31:47;12.70;;;9.55;;
29092;SDS011;16167;48.768;14.984;2023-04-06T05:34:15;13.68;;;9.40;;
29092;SDS011;16167;48.768;14.984;2023-04-06T05:36:44;18.55;;;10.50;;
29092;SDS011;16167;48.768;14.984;2023-04-06T05:39:12;36.33;;;18.50;;
29092;SDS011;16167;48.768;14.984;2023-04-06T05:41:42;19.17;;;11.10;;
29092;SDS011;16167;48.768;14.984;2023-04-06T05:44:10;16.92;;;9.35;;
29092;SDS011;16167;48.768;14.984;2023-04-06T05:46:38;18.38;;;10.68;;
29092;SDS011;16167;48.768;14.984;2023-04-06T05:49:06;16.83;;;10.50;;
29092;SDS011;16167;48.768;14.984;2023-04-06T05:51:35;18.77;;;11.55;;
29092;SDS011;16167;48.768;14.984;2023-04-06T05:54:03;31.92;;;13.98;;
29092;SDS011;16167;48.768;14.984;2023-04-06T05:56:31;21.67;;;12.40;;
29092;SDS011;16167;48.768;14.984;2023-04-06T05:59:01;20.42;;;11.05;;
29092;SDS011;16167;48.768;14.984;2023-04-06T06:01:29;21.23;;;11.73;;
29092;SDS011;16167;48.768;14.984;2023-04-06T06:03:57;19.13;;;11.32;;
29092;SDS011;16167;48.768;14.984;2023-04-06T06:06:27;21.83;;;12.35;;
29092;SDS011;16167;48.768;14.984;2023-04-06T06:08:56;19.52;;;11.43;;
29092;SDS011;16167;48.768;14.984;2023-04-06T06:11:25;23.50;;;13.00;;
29092;SDS011;16167;48.768;14.984;2023-04-06T06:13:53;21.75;;;13.38;;
29092;SDS011;16167;48.768;14.984;2023-04-06T06:16:22;26.83;;;14.23;;
29092;SDS011;16167;48.768;14.984;2023-04-06T06:18:51;30.73;;;15.63;;
29092;SDS011;16167;48.768;14.984;2023-04-06T06:21:19;26.17;;;15.55;;
29092;SDS011;16167;48.768;14.984;2023-04-06T06:23:47;21.92;;;14.38;;
29092;SDS011;16167;48.768;14.984;2023-04-06T06:26:16;17.42;;;11.50;;
29092;SDS011;16167;48.768;14.984;2023-04-06T06:28:44;14.73;;;10.40;;
29092;SDS011;16167;48.768;14.984;2023-04-06T06:31:12;15.43;;;8.80;;
29092;SDS011;16167;48.768;14.984;2023-04-06T06:33:42;16.45;;;7.47;;
29092;SDS011;16167;48.768;14.984;2023-04-06T06:36:10;20.92;;;7.90;;
29092;SDS011;16167;48.768;14.984;2023-04-06T06:38:38;11.85;;;6.95;;
29092;SDS011;16167;48.768;14.984;2023-04-06T06:41:07;12.90;;;7.78;;
29092;SDS011;16167;48.768;14.984;2023-04-06T06:43:35;12.95;;;6.80;;
29092;SDS011;16167;48.768;14.984;2023-04-06T06:46:03;10.73;;;7.07;;
29092;SDS011;16167;48.768;14.984;2023-04-06T06:48:32;11.68;;;6.50;;
29092;SDS011;16167;48.768;14.984;2023-04-06T06:51:02;13.50;;;7.68;;
29092;SDS011;16167;48.768;14.984;2023-04-06T06:53:30;14.43;;;7.85;;
29092;SDS011;16167;48.768;14.984;2023-04-06T06:55:58;15.43;;;8.23;;
29092;SDS011;16167;48.768;14.984;2023-04-06T06:58:26;15.68;;;8.15;;
29092;SDS011;16167;48.768;14.984;2023-04-06T07:00:55;14.30;;;8.98;;
29092;SDS011;16167;48.768;14.984;2023-04-06T07:03:25;15.63;;;8.25;;
29092;SDS011;16167;48.768;14.984;2023-04-06T07:05:53;13.30;;;8.52;;
29092;SDS011;16167;48.768;14.984;2023-04-06T07:08:24;14.82;;;8.52;;
29092;SDS011;16167;48.768;14.984;2023-04-06T07:13:22;11.57;;;7.47;;
29092;SDS011;16167;48.768;14.984;2023-04-06T07:15:52;15.07;;;6.82;;
29092;SDS011;16167;48.768;14.984;2023-04-06T07:18:21;9.32;;;6.20;;
29092;SDS011;16167;48.768;14.984;2023-04-06T07:20:50;9.10;;;6.43;;
29092;SDS011;16167;48.768;14.984;2023-04-06T07:23:18;10.38;;;7.13;;
29092;SDS011;16167;48.768;14.984;2023-04-06T07:25:48;16.15;;;7.78;;
29092;SDS011;16167;48.768;14.984;2023-04-06T07:28:17;11.65;;;7.82;;
29092;SDS011;16167;48.768;14.984;2023-04-06T07:30:45;25.88;;;13.30;;
29092;SDS011;16167;48.768;14.984;2023-04-06T07:33:13;15.10;;;9.10;;
29092;SDS011;16167;48.768;14.984;2023-04-06T07:35:41;13.20;;;6.82;;
29092;SDS011;16167;48.768;14.984;2023-04-06T07:38:10;10.30;;;6.90;;
29092;SDS011;16167;48.768;14.984;2023-04-06T07:40:38;11.23;;;6.65;;
29092;SDS011;16167;48.768;14.984;2023-04-06T07:43:07;12.90;;;8.10;;
29092;SDS011;16167;48.768;14.984;2023-04-06T07:45:36;10.32;;;7.18;;
29092;SDS011;16167;48.768;14.984;2023-04-06T07:48:04;13.43;;;7.65;;
29092;SDS011;16167;48.768;14.984;2023-04-06T07:50:32;12.07;;;7.32;;
29092;SDS011;16167;48.768;14.984;2023-04-06T07:53:00;12.30;;;7.25;;
29092;SDS011;16167;48.768;14.984;2023-04-06T07:55:29;10.63;;;6.63;;
29092;SDS011;16167;48.768;14.984;2023-04-06T07:57:57;10.20;;;6.38;;
29092;SDS011;16167;48.768;14.984;2023-04-06T08:00:26;9.35;;;6.80;;
29092;SDS011;16167;48.768;14.984;2023-04-06T08:05:23;14.02;;;7.28;;
29092;SDS011;16167;48.768;14.984;2023-04-06T08:07:51;11.07;;;6.68;;
29092;SDS011;16167;48.768;14.984;2023-04-06T08:10:19;9.38;;;6.28;;
29092;SDS011;16167;48.768;14.984;2023-04-06T08:12:47;10.98;;;6.40;;
29092;SDS011;16167;48.768;14.984;2023-04-06T08:15:15;8.43;;;6.22;;
29092;SDS011;16167;48.768;14.984;2023-04-06T08:17:45;7.95;;;6.30;;
29092;SDS011;16167;48.768;14.984;2023-04-06T08:22:42;11.52;;;7.00;;
29092;SDS011;16167;48.768;14.984;2023-04-06T08:25:10;9.70;;;6.65;;
29092;SDS011;16167;48.768;14.984;2023-04-06T08:27:38;9.20;;;5.93;;
29092;SDS011;16167;48.768;14.984;2023-04-06T08:30:07;11.30;;;6.32;;
29092;SDS011;16167;48.768;14.984;2023-04-06T08:32:35;8.70;;;5.90;;
29092;SDS011;16167;48.768;14.984;2023-04-06T08:35:05;7.57;;;5.60;;
29092;SDS011;16167;48.768;14.984;2023-04-06T08:37:34;8.10;;;5.15;;
29092;SDS011;16167;48.768;14.984;2023-04-06T08:40:02;8.65;;;5.53;;
29092;SDS011;16167;48.768;14.984;2023-04-06T08:42:31;8.10;;;5.30;;
29092;SDS011;16167;48.768;14.984;2023-04-06T08:45:00;8.38;;;6.10;;
29092;SDS011;16167;48.768;14.984;2023-04-06T08:47:29;8.48;;;5.55;;
29092;SDS011;16167;48.768;14.984;2023-04-06T08:49:57;6.85;;;5.75;;
29092;SDS011;16167;48.768;14.984;2023-04-06T08:52:29;9.85;;;6.22;;
29092;SDS011;16167;48.768;14.984;2023-04-06T08:54:59;8.50;;;6.07;;
29092;SDS011;16167;48.768;14.984;2023-04-06T08:57:27;8.20;;;6.43;;
29092;SDS011;16167;48.768;14.984;2023-04-06T08:59:58;9.32;;;5.70;;
29092;SDS011;16167;48.768;14.984;2023-04-06T09:02:28;8.70;;;5.43;;
29092;SDS011;16167;48.768;14.984;2023-04-06T09:04:57;7.85;;;5.85;;
29092;SDS011;16167;48.768;14.984;2023-04-06T09:07:28;7.05;;;6.00;;
29092;SDS011;16167;48.768;14.984;2023-04-06T09:09:57;9.13;;;6.05;;
29092;SDS011;16167;48.768;14.984;2023-04-06T09:12:26;7.03;;;5.75;;
29092;SDS011;16167;48.768;14.984;2023-04-06T09:14:55;8.60;;;6.40;;
29092;SDS011;16167;48.768;14.984;2023-04-06T09:17:24;9.00;;;6.03;;
29092;SDS011;16167;48.768;14.984;2023-04-06T09:19:53;7.03;;;5.35;;
29092;SDS011;16167;48.768;14.984;2023-04-06T09:22:22;7.18;;;6.15;;
29092;SDS011;16167;48.768;14.984;2023-04-06T09:24:53;9.63;;;5.78;;
29092;SDS011;16167;48.768;14.984;2023-04-06T09:27:29;9.55;;;6.45;;
29092;SDS011;16167;48.768;14.984;2023-04-06T09:30:05;7.82;;;5.80;;
29092;SDS011;16167;48.768;14.984;2023-04-06T09:32:43;6.28;;;5.15;;
29092;SDS011;16167;48.768;14.984;2023-04-06T09:35:16;8.52;;;5.03;;
29092;SDS011;16167;48.768;14.984;2023-04-06T09:37:46;8.27;;;5.18;;
29092;SDS011;16167;48.768;14.984;2023-04-06T09:40:16;7.13;;;5.38;;
29092;SDS011;16167;48.768;14.984;2023-04-06T09:42:45;6.95;;;6.22;;
29092;SDS011;16167;48.768;14.984;2023-04-06T09:45:14;9.50;;;6.40;;
29092;SDS011;16167;48.768;14.984;2023-04-06T09:47:43;8.98;;;6.53;;
29092;SDS011;16167;48.768;14.984;2023-04-06T09:50:13;7.85;;;5.90;;
29092;SDS011;16167;48.768;14.984;2023-04-06T09:52:44;8.73;;;6.10;;
29092;SDS011;16167;48.768;14.984;2023-04-06T09:55:23;9.07;;;6.38;;
29092;SDS011;16167;48.768;14.984;2023-04-06T09:57:57;9.30;;;6.07;;
29092;SDS011;16167;48.768;14.984;2023-04-06T10:00:32;7.35;;;6.20;;
29092;SDS011;16167;48.768;14.984;2023-04-06T10:03:04;8.50;;;6.35;;
29092;SDS011;16167;48.768;14.984;2023-04-06T10:05:43;8.13;;;5.95;;
29092;SDS011;16167;48.768;14.984;2023-04-06T10:08:17;8.52;;;6.30;;
29092;SDS011;16167;48.768;14.984;2023-04-06T10:10:49;9.32;;;5.80;;
29092;SDS011;16167;48.768;14.984;2023-04-06T10:13:20;7.15;;;5.65;;
29092;SDS011;16167;48.768;14.984;2023-04-06T10:15:49;8.57;;;6.00;;
29092;SDS011;16167;48.768;14.984;2023-04-06T10:18:17;6.60;;;5.30;;
29092;SDS011;16167;48.768;14.984;2023-04-06T10:20:47;10.25;;;6.78;;
29092;SDS011;16167;48.768;14.984;2023-04-06T10:23:19;13.35;;;7.57;;
29092;SDS011;16167;48.768;14.984;2023-04-06T10:25:55;11.30;;;6.32;;
29092;SDS011;16167;48.768;14.984;2023-04-06T10:28:24;7.10;;;5.82;;
29092;SDS011;16167;48.768;14.984;2023-04-06T10:30:56;7.03;;;6.32;;
29092;SDS011;16167;48.768;14.984;2023-04-06T10:33:25;7.25;;;5.72;;
29092;SDS011;16167;48.768;14.984;2023-04-06T10:35:54;9.30;;;6.13;;
29092;SDS011;16167;48.768;14.984;2023-04-06T10:38:32;7.72;;;5.70;;
29092;SDS011;16167;48.768;14.984;2023-04-06T10:41:07;7.15;;;6.18;;
29092;SDS011;16167;48.768;14.984;2023-04-06T10:43:37;8.63;;;6.82;;
29092;SDS011;16167;48.768;14.984;2023-04-06T10:46:06;8.30;;;7.40;;
29092;SDS011;16167;48.768;14.984;2023-04-06T10:48:36;9.68;;;6.13;;
29092;SDS011;16167;48.768;14.984;2023-04-06T10:51:10;8.43;;;6.10;;
29092;SDS011;16167;48.768;14.984;2023-04-06T10:53:39;11.57;;;7.07;;
29092;SDS011;16167;48.768;14.984;2023-04-06T10:56:11;8.88;;;6.47;;
29092;SDS011;16167;48.768;14.984;2023-04-06T10:58:43;8.32;;;6.25;;
29092;SDS011;16167;48.768;14.984;2023-04-06T11:01:13;8.15;;;6.30;;
29092;SDS011;16167;48.768;14.984;2023-04-06T11:03:43;7.93;;;5.97;;
29092;SDS011;16167;48.768;14.984;2023-04-06T11:06:17;9.60;;;6.13;;
29092;SDS011;16167;48.768;14.984;2023-04-06T11:08:46;10.52;;;6.63;;
29092;SDS011;16167;48.768;14.984;2023-04-06T11:11:16;8.00;;;6.80;;
29092;SDS011;16167;48.768;14.984;2023-04-06T11:13:45;6.85;;;6.10;;
29092;SDS011;16167;48.768;14.984;2023-04-06T11:16:16;7.65;;;6.25;;
29092;SDS011;16167;48.768;14.984;2023-04-06T11:18:46;8.35;;;6.75;;
29092;SDS011;16167;48.768;14.984;2023-04-06T11:21:31;8.95;;;7.38;;
29092;SDS011;16167;48.768;14.984;2023-04-06T11:24:05;8.15;;;6.03;;
29092;SDS011;16167;48.768;14.984;2023-04-06T11:26:39;7.15;;;5.35;;
29092;SDS011;16167;48.768;14.984;2023-04-06T11:29:08;9.18;;;6.15;;
29092;SDS011;16167;48.768;14.984;2023-04-06T11:31:43;6.97;;;5.93;;
29092;SDS011;16167;48.768;14.984;2023-04-06T11:34:15;10.15;;;6.68;;
29092;SDS011;16167;48.768;14.984;2023-04-06T11:36:45;9.77;;;7.00;;
29092;SDS011;16167;48.768;14.984;2023-04-06T11:39:18;6.90;;;5.68;;
29092;SDS011;16167;48.768;14.984;2023-04-06T11:41:49;6.35;;;5.70;;
29092;SDS011;16167;48.768;14.984;2023-04-06T11:44:28;6.20;;;5.60;;
29092;SDS011;16167;48.768;14.984;2023-04-06T11:46:57;5.97;;;5.38;;
29092;SDS011;16167;48.768;14.984;2023-04-06T11:49:26;8.75;;;6.38;;
29092;SDS011;16167;48.768;14.984;2023-04-06T11:51:54;8.20;;;6.00;;
29092;SDS011;16167;48.768;14.984;2023-04-06T11:54:30;7.20;;;5.73;;
29092;SDS011;16167;48.768;14.984;2023-04-06T11:57:00;9.63;;;5.97;;
29092;SDS011;16167;48.768;14.984;2023-04-06T11:59:29;12.73;;;7.00;;
29092;SDS011;16167;48.768;14.984;2023-04-06T12:01:57;7.65;;;6.38;;
29092;SDS011;16167;48.768;14.984;2023-04-06T12:04:26;9.18;;;6.40;;
29092;SDS011;16167;48.768;14.984;2023-04-06T12:06:54;6.28;;;5.68;;
29092;SDS011;16167;48.768;14.984;2023-04-06T12:09:22;7.57;;;5.60;;
29092;SDS011;16167;48.768;14.984;2023-04-06T12:11:50;6.72;;;5.80;;
29092;SDS011;16167;48.768;14.984;2023-04-06T12:14:20;8.32;;;6.13;;
29092;SDS011;16167;48.768;14.984;2023-04-06T12:16:48;8.38;;;5.65;;
29092;SDS011;16167;48.768;14.984;2023-04-06T12:19:16;7.25;;;6.45;;
29092;SDS011;16167;48.768;14.984;2023-04-06T12:21:44;7.80;;;6.68;;
29092;SDS011;16167;48.768;14.984;2023-04-06T12:24:12;7.75;;;5.90;;
29092;SDS011;16167;48.768;14.984;2023-04-06T12:26:42;7.93;;;6.57;;
29092;SDS011;16167;48.768;14.984;2023-04-06T12:29:10;8.43;;;5.88;;
29092;SDS011;16167;48.768;14.984;2023-04-06T12:31:40;6.70;;;6.07;;
29092;SDS011;16167;48.768;14.984;2023-04-06T12:34:10;9.98;;;6.50;;
29092;SDS011;16167;48.768;14.984;2023-04-06T12:36:39;8.32;;;5.82;;
29092;SDS011;16167;48.768;14.984;2023-04-06T12:39:07;8.68;;;6.07;;
29092;SDS011;16167;48.768;14.984;2023-04-06T12:41:35;8.52;;;6.85;;
29092;SDS011;16167;48.768;14.984;2023-04-06T12:44:03;5.97;;;5.47;;
29092;SDS011;16167;48.768;14.984;2023-04-06T12:46:31;7.05;;;5.80;;
29092;SDS011;16167;48.768;14.984;2023-04-06T12:49:01;7.45;;;6.00;;
29092;SDS011;16167;48.768;14.984;2023-04-06T12:51:29;10.45;;;6.03;;
29092;SDS011;16167;48.768;14.984;2023-04-06T12:53:58;6.28;;;5.68;;
29092;SDS011;16167;48.768;14.984;2023-04-06T12:56:27;7.78;;;5.82;;
29092;SDS011;16167;48.768;14.984;2023-04-06T12:58:55;6.65;;;5.30;;
29092;SDS011;16167;48.768;14.984;2023-04-06T13:01:23;8.20;;;6.18;;
29092;SDS011;16167;48.768;14.984;2023-04-06T13:03:55;8.25;;;5.40;;
29092;SDS011;16167;48.768;14.984;2023-04-06T13:06:26;5.63;;;5.05;;
29092;SDS011;16167;48.768;14.984;2023-04-06T13:08:55;6.78;;;5.93;;
29092;SDS011;16167;48.768;14.984;2023-04-06T13:11:25;6.93;;;5.28;;
29092;SDS011;16167;48.768;14.984;2023-04-06T13:13:54;6.13;;;5.43;;
29092;SDS011;16167;48.768;14.984;2023-04-06T13:16:22;5.97;;;4.95;;
29092;SDS011;16167;48.768;14.984;2023-04-06T13:18:51;6.90;;;6.00;;
29092;SDS011;16167;48.768;14.984;2023-04-06T13:21:19;7.28;;;5.47;;
29092;SDS011;16167;48.768;14.984;2023-04-06T13:23:49;10.68;;;6.57;;
29092;SDS011;16167;48.768;14.984;2023-04-06T13:26:18;6.05;;;5.38;;
29092;SDS011;16167;48.768;14.984;2023-04-06T13:28:46;5.72;;;4.85;;
29092;SDS011;16167;48.768;14.984;2023-04-06T13:31:14;7.68;;;5.97;;
29092;SDS011;16167;48.768;14.984;2023-04-06T13:33:42;8.15;;;5.75;;
29092;SDS011;16167;48.768;14.984;2023-04-06T13:36:11;5.88;;;5.28;;
29092;SDS011;16167;48.768;14.984;2023-04-06T13:38:42;7.95;;;5.40;;
29092;SDS011;16167;48.768;14.984;2023-04-06T13:41:18;5.50;;;4.95;;
29092;SDS011;16167;48.768;14.984;2023-04-06T13:43:48;8.13;;;5.85;;
29092;SDS011;16167;48.768;14.984;2023-04-06T13:46:16;6.38;;;5.45;;
29092;SDS011;16167;48.768;14.984;2023-04-06T13:48:45;5.40;;;4.70;;
29092;SDS011;16167;48.768;14.984;2023-04-06T13:51:13;5.68;;;4.90;;
29092;SDS011;16167;48.768;14.984;2023-04-06T13:53:42;8.55;;;5.75;;
29092;SDS011;16167;48.768;14.984;2023-04-06T13:56:10;8.00;;;5.95;;
29092;SDS011;16167;48.768;14.984;2023-04-06T13:58:39;7.20;;;5.60;;
29092;SDS011;16167;48.768;14.984;2023-04-06T14:01:08;7.55;;;5.78;;
29092;SDS011;16167;48.768;14.984;2023-04-06T14:03:37;8.20;;;6.93;;
29092;SDS011;16167;48.768;14.984;2023-04-06T14:06:11;6.13;;;5.35;;
29092;SDS011;16167;48.768;14.984;2023-04-06T14:08:56;7.53;;;5.45;;
29092;SDS011;16167;48.768;14.984;2023-04-06T14:11:24;9.80;;;5.65;;
29092;SDS011;16167;48.768;14.984;2023-04-06T14:13:53;5.47;;;4.97;;
29092;SDS011;16167;48.768;14.984;2023-04-06T14:16:24;7.07;;;5.28;;
29092;SDS011;16167;48.768;14.984;2023-04-06T14:18:53;8.40;;;5.13;;
29092;SDS011;16167;48.768;14.984;2023-04-06T14:21:24;5.50;;;4.80;;
29092;SDS011;16167;48.768;14.984;2023-04-06T14:23:52;5.95;;;5.15;;
29092;SDS011;16167;48.768;14.984;2023-04-06T14:26:24;7.88;;;5.45;;
29092;SDS011;16167;48.768;14.984;2023-04-06T14:28:55;5.65;;;5.05;;
29092;SDS011;16167;48.768;14.984;2023-04-06T14:31:23;5.85;;;5.13;;
29092;SDS011;16167;48.768;14.984;2023-04-06T14:33:51;6.00;;;5.18;;
29092;SDS011;16167;48.768;14.984;2023-04-06T14:36:19;6.30;;;4.97;;
29092;SDS011;16167;48.768;14.984;2023-04-06T14:38:48;8.82;;;5.53;;
29092;SDS011;16167;48.768;14.984;2023-04-06T14:41:16;6.72;;;5.25;;
29092;SDS011;16167;48.768;14.984;2023-04-06T14:43:45;6.03;;;5.43;;
29092;SDS011;16167;48.768;14.984;2023-04-06T14:51:11;8.13;;;5.72;;
29092;SDS011;16167;48.768;14.984;2023-04-06T14:53:39;6.10;;;5.03;;
29092;SDS011;16167;48.768;14.984;2023-04-06T14:56:07;6.03;;;5.22;;